createdAt,value
2023-05-01T00:02:23.922Z,12.90
2023-05-01T00:04:51.256Z,17.45
2023-05-01T00:07:18.618Z,11.50
2023-05-01T00:09:46.127Z,11.02
2023-05-01T00:12:13.235Z,15.57
2023-05-01T00:14:40.673Z,11.70
2023-05-01T00:17:07.942Z,8.20
2023-05-01T00:19:35.059Z,7.15
2023-05-01T00:24:29.446Z,7.72
2023-05-01T00:26:56.834Z,7.70
2023-05-01T00:29:24.139Z,6.03
2023-05-01T00:31:51.302Z,7.60
2023-05-01T00:34:18.653Z,8.82
2023-05-01T00:36:47.047Z,8.35
2023-05-01T00:39:15.396Z,9.73
2023-05-01T00:41:42.710Z,11.23
2023-05-01T00:44:10.239Z,8.52
2023-05-01T00:46:37.771Z,8.32
2023-05-01T00:49:06.345Z,9.80
2023-05-01T00:54:15.302Z,10.45
2023-05-01T00:56:44.161Z,12.45
2023-05-01T00:59:13.507Z,10.38
2023-05-01T01:01:42.696Z,10.75
2023-05-01T01:04:10.441Z,9.25
2023-05-01T01:06:46.674Z,10.68
2023-05-01T01:09:28.198Z,11.52
2023-05-01T01:12:13.540Z,8.95
2023-05-01T01:14:58.571Z,10.93
2023-05-01T01:17:38.401Z,7.30
2023-05-01T01:20:25.082Z,5.32
2023-05-01T01:23:13.819Z,5.80
2023-05-01T01:26:02.850Z,5.30
2023-05-01T01:29:01.895Z,6.13
2023-05-01T01:32:04.076Z,5.53
2023-05-01T01:34:54.486Z,4.65
2023-05-01T01:37:28.638Z,4.30
2023-05-01T01:40:19.577Z,4.47
2023-05-01T01:42:53.291Z,7.10
2023-05-01T01:45:26.733Z,4.63
2023-05-01T01:47:56.470Z,4.03
2023-05-01T01:50:27.235Z,4.32
2023-05-01T01:52:55.320Z,5.78
2023-05-01T01:55:28.213Z,6.75
2023-05-01T01:57:57.183Z,5.85
2023-05-01T02:00:24.965Z,5.43
2023-05-01T02:02:54.068Z,8.48
2023-05-01T02:05:22.424Z,5.80
2023-05-01T02:07:51.492Z,6.60
2023-05-01T02:10:20.402Z,5.03
2023-05-01T02:12:50.505Z,6.57
2023-05-01T02:15:22.129Z,4.47
2023-05-01T02:17:51.571Z,7.47
2023-05-01T02:20:20.198Z,5.30
2023-05-01T02:22:48.576Z,7.53
2023-05-01T02:25:16.979Z,5.82
2023-05-01T02:28:00.479Z,9.18
2023-05-01T02:30:27.862Z,6.20
2023-05-01T02:32:55.258Z,6.53
2023-05-01T02:35:28.155Z,7.68
2023-05-01T02:37:55.578Z,6.93
2023-05-01T02:40:23.068Z,8.07
2023-05-01T02:42:53.275Z,8.70
2023-05-01T02:45:24.065Z,7.25
2023-05-01T02:47:55.176Z,7.53
2023-05-01T02:50:24.044Z,8.80
2023-05-01T02:52:51.700Z,11.20
2023-05-01T02:55:39.451Z,8.43
2023-05-01T02:58:07.232Z,8.23
2023-05-01T03:00:35.510Z,8.57
2023-05-01T03:03:05.867Z,7.55
2023-05-01T03:05:33.205Z,7.10
2023-05-01T03:08:00.400Z,8.65
2023-05-01T03:12:56.428Z,10.80
2023-05-01T03:15:23.670Z,12.70
2023-05-01T03:17:50.849Z,7.50
2023-05-01T03:20:18.142Z,10.85
2023-05-01T03:22:45.185Z,9.15
2023-05-01T03:27:39.235Z,9.23
2023-05-01T03:30:07.126Z,10.48
2023-05-01T03:32:38.290Z,8.65
2023-05-01T03:35:09.606Z,10.43
2023-05-01T03:37:37.868Z,8.80
2023-05-01T03:40:05.666Z,8.98
2023-05-01T03:42:51.203Z,8.70
2023-05-01T03:45:23.740Z,8.95
2023-05-01T03:47:51.100Z,7.18
2023-05-01T03:50:28.149Z,7.75
2023-05-01T03:53:00.339Z,6.55
2023-05-01T04:25:07.472Z,7.30
2023-05-01T04:32:59.055Z,8.70
2023-05-01T04:35:27.050Z,7.28
2023-05-01T04:37:54.892Z,7.40
2023-05-01T04:40:22.375Z,8.05
2023-05-01T04:42:50.247Z,7.82
2023-05-01T04:45:17.766Z,9.05
2023-05-01T04:47:45.078Z,9.98
2023-05-01T04:50:12.439Z,7.03
2023-05-01T04:52:40.768Z,7.65
2023-05-01T04:55:09.960Z,7.57
2023-05-01T04:57:44.304Z,8.00
2023-05-01T05:00:12.251Z,7.32
2023-05-01T05:02:48.748Z,8.52
2023-05-01T05:05:16.157Z,7.10
2023-05-01T05:08:02.152Z,7.10
2023-05-01T05:10:41.703Z,7.47
2023-05-01T05:13:29.377Z,10.02
2023-05-01T05:16:03.445Z,7.88
2023-05-01T05:18:49.455Z,8.98
2023-05-01T05:21:36.026Z,8.02
2023-05-01T05:24:04.492Z,7.95
2023-05-01T05:26:32.353Z,8.23
2023-05-01T05:29:03.274Z,9.18
2023-05-01T05:31:30.965Z,9.18
2023-05-01T05:34:17.805Z,8.85
2023-05-01T05:36:49.917Z,9.98
2023-05-01T05:39:24.080Z,9.03
2023-05-01T05:42:10.334Z,8.02
2023-05-01T05:44:39.392Z,10.25
2023-05-01T05:47:07.334Z,9.30
2023-05-01T05:49:53.499Z,9.57
2023-05-01T05:52:21.354Z,9.68
2023-05-01T05:54:49.049Z,8.93
2023-05-01T05:57:17.696Z,10.43
2023-05-01T05:59:49.722Z,8.30
2023-05-01T06:02:22.810Z,11.20
2023-05-01T06:04:50.455Z,9.55
2023-05-01T06:07:22.392Z,10.80
2023-05-01T06:09:49.677Z,8.38
2023-05-01T06:12:17.148Z,10.00
2023-05-01T06:14:44.799Z,8.40
2023-05-01T06:17:12.404Z,8.65
2023-05-01T06:19:39.570Z,7.40
2023-05-01T06:22:10.230Z,9.48
2023-05-01T06:24:44.731Z,9.18
2023-05-01T06:27:13.209Z,4.72
2023-05-01T06:29:40.651Z,6.72
2023-05-01T06:32:08.684Z,9.75
2023-05-01T06:34:35.973Z,7.18
2023-05-01T06:37:05.375Z,11.02
2023-05-01T06:39:34.046Z,8.10
2023-05-01T06:42:21.639Z,8.13
2023-05-01T06:44:48.720Z,9.73
2023-05-01T06:47:15.957Z,7.32
2023-05-01T06:49:43.886Z,7.50
2023-05-01T06:52:11.693Z,7.15
2023-05-01T06:54:40.064Z,16.98
2023-05-01T06:57:07.142Z,7.97
2023-05-01T06:59:34.402Z,8.40
2023-05-01T07:02:01.832Z,8.05
2023-05-01T07:04:47.899Z,7.28
2023-05-01T07:09:56.580Z,9.23
2023-05-01T07:12:24.293Z,7.75
2023-05-01T07:14:51.533Z,8.15
2023-05-01T07:17:18.811Z,6.00
2023-05-01T07:19:46.061Z,7.03
2023-05-01T07:22:13.383Z,9.05
2023-05-01T07:24:41.501Z,12.45
2023-05-01T07:27:09.337Z,11.23
2023-05-01T07:29:38.749Z,9.48
2023-05-01T07:32:07.205Z,7.57
2023-05-01T07:34:34.894Z,8.20
2023-05-01T07:37:02.396Z,9.63
2023-05-01T07:39:29.639Z,8.32
2023-05-01T07:41:59.408Z,8.45
2023-05-01T07:44:29.572Z,10.02
2023-05-01T07:47:03.866Z,8.38
2023-05-01T07:49:38.621Z,8.82
2023-05-01T07:52:07.776Z,6.85
2023-05-01T07:54:35.115Z,6.90
2023-05-01T07:57:08.737Z,5.25
2023-05-01T07:59:35.862Z,8.73
2023-05-01T08:02:03.673Z,5.88
2023-05-01T08:04:31.291Z,7.47
2023-05-01T08:07:01.524Z,9.02
2023-05-01T08:09:29.138Z,5.82
2023-05-01T08:11:56.589Z,8.20
2023-05-01T08:14:24.620Z,8.57
2023-05-01T08:16:55.589Z,6.82
2023-05-01T08:19:23.903Z,7.15
2023-05-01T08:21:54.129Z,7.70
2023-05-01T08:24:22.506Z,6.82
2023-05-01T08:26:51.086Z,6.47
2023-05-01T08:29:20.918Z,7.90
2023-05-01T08:31:48.252Z,8.85
2023-05-01T08:34:16.266Z,8.90
2023-05-01T08:36:43.533Z,7.75
2023-05-01T08:39:13.773Z,9.70
2023-05-01T08:41:41.284Z,6.20
2023-05-01T08:44:10.763Z,6.63
2023-05-01T08:46:41.487Z,7.43
2023-05-01T08:49:16.937Z,11.20
2023-05-01T08:51:48.214Z,6.40
2023-05-01T08:54:20.022Z,12.43
2023-05-01T08:56:48.215Z,8.63
2023-05-01T08:59:16.810Z,11.05
2023-05-01T09:01:47.236Z,10.60
2023-05-01T09:04:16.555Z,7.20
2023-05-01T09:06:45.235Z,8.80
2023-05-01T09:09:12.718Z,6.38
2023-05-01T09:11:40.381Z,6.97
2023-05-01T09:14:08.722Z,10.27
2023-05-01T09:16:36.094Z,7.25
2023-05-01T09:19:03.747Z,4.18
2023-05-01T09:21:32.279Z,6.43
2023-05-01T09:23:59.459Z,7.22
2023-05-01T09:26:26.953Z,5.50
2023-05-01T09:28:58.408Z,4.95
2023-05-01T09:31:33.333Z,7.57
2023-05-01T09:34:04.329Z,6.82
2023-05-01T09:36:33.314Z,7.25
2023-05-01T09:39:01.871Z,6.90
2023-05-01T09:41:29.398Z,8.93
2023-05-01T09:43:57.665Z,6.20
2023-05-01T09:46:26.257Z,5.25
2023-05-01T09:48:58.784Z,8.63
2023-05-01T09:51:31.823Z,6.72
2023-05-01T09:54:03.153Z,5.68
2023-05-01T09:56:32.587Z,14.25
2023-05-01T09:59:22.897Z,10.88
2023-05-01T10:01:51.024Z,6.75
2023-05-01T10:04:30.844Z,6.03
2023-05-01T10:06:59.010Z,4.60
2023-05-01T10:09:28.969Z,9.57
2023-05-01T10:11:57.936Z,7.55
2023-05-01T10:14:27.201Z,6.75
2023-05-01T10:16:54.843Z,6.63
2023-05-01T10:19:22.394Z,8.98
2023-05-01T10:27:23.352Z,6.30
2023-05-01T10:29:53.762Z,5.90
2023-05-01T10:32:22.949Z,4.45
2023-05-01T10:35:00.052Z,5.85
2023-05-01T10:37:46.818Z,5.65
2023-05-01T10:40:49.775Z,7.32
2023-05-01T10:43:53.956Z,6.20
2023-05-01T10:46:22.460Z,6.68
2023-05-01T10:48:49.892Z,7.78
2023-05-01T10:54:15.535Z,6.63
2023-05-01T10:56:43.744Z,7.70
2023-05-01T10:59:12.217Z,3.53
2023-05-01T11:01:58.011Z,9.07
2023-05-01T11:04:25.203Z,4.97
2023-05-01T11:07:17.977Z,4.28
2023-05-01T11:09:55.536Z,2.78
2023-05-01T11:12:41.917Z,7.65
2023-05-01T11:15:09.826Z,3.97
2023-05-01T11:17:41.139Z,3.78
2023-05-01T11:20:10.517Z,3.03
2023-05-01T11:22:40.286Z,5.63
2023-05-01T11:25:45.040Z,8.48
2023-05-01T11:28:13.136Z,4.30
2023-05-01T11:30:40.880Z,4.30
2023-05-01T11:33:11.353Z,4.32
2023-05-01T11:35:39.193Z,4.20
2023-05-01T11:38:24.919Z,4.53
2023-05-01T11:40:59.192Z,4.28
2023-05-01T11:43:26.960Z,3.60
2023-05-01T11:45:55.621Z,3.63
2023-05-01T11:48:23.039Z,3.00
2023-05-01T11:50:50.265Z,8.02
2023-05-01T11:53:17.934Z,6.90
2023-05-01T11:55:46.102Z,3.15
2023-05-01T11:58:14.028Z,2.67
2023-05-01T12:00:43.896Z,3.50
2023-05-01T12:03:15.868Z,3.70
2023-05-01T12:05:45.839Z,2.78
2023-05-01T12:08:20.792Z,2.35
2023-05-01T12:10:57.976Z,3.25
2023-05-01T12:13:27.330Z,3.95
2023-05-01T12:15:57.114Z,3.03
2023-05-01T12:18:24.515Z,3.45
2023-05-01T12:20:54.573Z,2.28
2023-05-01T12:23:37.814Z,3.13
2023-05-01T12:26:18.493Z,2.28
2023-05-01T12:29:00.274Z,2.50
2023-05-01T12:31:46.990Z,2.47
2023-05-01T12:34:14.482Z,3.35
2023-05-01T12:36:42.086Z,2.50
2023-05-01T12:39:13.383Z,3.10
2023-05-01T12:41:49.175Z,2.85
2023-05-01T12:44:27.686Z,2.72
2023-05-01T12:47:05.821Z,3.45
2023-05-01T12:49:41.927Z,5.50
2023-05-01T12:52:09.876Z,3.40
2023-05-01T12:54:44.909Z,4.72
2023-05-01T13:02:17.869Z,4.32
2023-05-01T13:05:16.190Z,3.17
2023-05-01T13:07:50.367Z,3.65
2023-05-01T13:10:31.542Z,3.45
2023-05-01T13:12:59.594Z,4.45
2023-05-01T13:15:28.210Z,5.35
2023-05-01T13:18:22.782Z,3.63
2023-05-01T13:20:53.762Z,3.45
2023-05-01T13:23:22.429Z,3.03
2023-05-01T13:26:01.514Z,5.85
2023-05-01T13:28:30.131Z,5.15
2023-05-01T13:31:03.806Z,5.30
2023-05-01T13:33:35.390Z,3.78
2023-05-01T13:36:14.131Z,3.88
2023-05-01T13:39:06.776Z,7.90
2023-05-01T13:41:43.423Z,3.92
2023-05-01T13:44:33.332Z,3.35
2023-05-01T13:47:06.497Z,4.75
2023-05-01T13:49:40.774Z,3.95
2023-05-01T13:52:09.273Z,4.00
2023-05-01T13:54:42.309Z,3.00
2023-05-01T13:57:12.945Z,4.95
2023-05-01T13:59:43.532Z,4.03
2023-05-01T14:02:22.193Z,4.85
2023-05-01T14:04:51.757Z,4.25
2023-05-01T14:07:21.346Z,3.60
2023-05-01T14:10:00.199Z,3.63
2023-05-01T14:12:30.392Z,3.97
2023-05-01T14:14:58.321Z,7.30
2023-05-01T14:17:36.331Z,4.90
2023-05-01T14:20:05.837Z,3.30
2023-05-01T14:22:48.215Z,3.30
2023-05-01T14:25:32.076Z,3.38
2023-05-01T14:28:38.011Z,2.80
2023-05-01T14:37:22.985Z,3.53
2023-05-01T14:39:50.880Z,4.07
2023-05-01T14:42:18.276Z,4.20
2023-05-01T14:44:45.943Z,5.13
2023-05-01T14:47:16.876Z,3.15
2023-05-01T14:49:44.231Z,2.85
2023-05-01T14:55:28.578Z,2.80
2023-05-01T14:57:57.228Z,3.92
2023-05-01T15:00:25.179Z,4.25
2023-05-01T15:05:48.917Z,5.53
2023-05-01T15:08:17.235Z,2.58
2023-05-01T15:10:45.464Z,2.88
2023-05-01T15:13:13.168Z,4.30
2023-05-01T15:16:08.574Z,2.20
2023-05-01T15:18:37.241Z,3.05
2023-05-01T15:24:30.866Z,3.85
2023-05-01T15:27:01.341Z,3.35
2023-05-01T15:32:15.265Z,2.85
2023-05-01T16:23:31.856Z,2.63
2023-05-01T16:28:54.388Z,3.65
2023-05-01T16:50:38.624Z,2.20
2023-05-01T17:20:27.677Z,4.00
2023-05-01T17:31:27.883Z,2.90
2023-05-01T17:37:12.142Z,2.80
2023-05-01T17:50:52.199Z,2.70
2023-05-01T17:59:56.161Z,4.00
2023-05-01T18:02:26.426Z,4.88
2023-05-01T18:10:50.426Z,4.03
2023-05-01T18:13:17.956Z,4.18
2023-05-01T18:15:46.823Z,4.00
2023-05-01T18:18:14.160Z,4.45
2023-05-01T18:23:26.703Z,8.98
2023-05-01T18:25:56.316Z,5.90
2023-05-01T18:28:26.706Z,12.10
2023-05-01T18:31:00.517Z,5.80
2023-05-01T18:33:27.974Z,5.65
2023-05-01T18:35:56.105Z,4.50
2023-05-01T18:41:33.196Z,4.10
2023-05-01T18:50:27.598Z,5.32
2023-05-01T18:52:55.155Z,5.68
2023-05-01T18:55:23.874Z,7.90
2023-05-01T19:01:02.699Z,5.35
2023-05-01T19:06:42.008Z,7.80
2023-05-01T19:09:09.597Z,22.10
2023-05-01T19:15:12.989Z,7.00
2023-05-01T19:17:42.165Z,3.97
2023-05-01T19:20:09.695Z,3.92
2023-05-01T19:22:55.333Z,4.30
2023-05-01T19:25:22.596Z,4.93
2023-05-01T19:27:51.397Z,3.28
2023-05-01T19:30:21.799Z,3.97
2023-05-01T19:32:49.328Z,2.78
2023-05-01T19:35:16.561Z,2.88
2023-05-01T19:38:02.200Z,4.18
2023-05-01T19:40:30.644Z,2.97
2023-05-01T19:42:57.847Z,3.25
2023-05-01T19:45:25.236Z,3.75
2023-05-01T19:47:52.432Z,5.22
2023-05-01T19:50:23.269Z,3.58
2023-05-01T19:52:50.414Z,2.97
2023-05-01T19:55:18.855Z,2.95
2023-05-01T20:03:26.025Z,3.78
2023-05-01T20:05:53.553Z,2.53
2023-05-01T20:08:20.879Z,3.72
2023-05-01T20:10:48.089Z,3.00
2023-05-01T20:13:15.654Z,4.35
2023-05-01T20:18:52.515Z,3.03
2023-05-01T20:21:19.794Z,2.17
2023-05-01T20:23:47.054Z,3.28
2023-05-01T20:26:14.241Z,2.67
2023-05-01T20:28:41.399Z,2.65
2023-05-01T20:31:08.577Z,6.38
2023-05-01T20:33:35.679Z,4.10
2023-05-01T20:36:03.195Z,2.88
2023-05-01T20:38:30.666Z,4.82
2023-05-01T20:44:09.042Z,2.10
2023-05-01T20:46:36.489Z,1.88
2023-05-01T20:58:36.116Z,3.60
2023-05-01T21:01:03.807Z,3.33
2023-05-01T21:03:32.419Z,2.45
2023-05-01T21:09:19.521Z,3.03
2023-05-01T21:11:46.713Z,2.65
2023-05-01T21:14:13.957Z,3.47
2023-05-01T21:19:50.888Z,3.17
2023-05-01T21:28:44.820Z,3.67
2023-05-01T21:37:29.323Z,3.03
2023-05-01T21:49:35.871Z,4.47
2023-05-01T21:52:03.039Z,3.00
2023-05-01T21:57:00.069Z,3.72
2023-05-01T21:59:36.371Z,4.85
2023-05-01T22:02:12.717Z,5.03
2023-05-01T22:04:40.515Z,3.00
2023-05-01T22:07:07.648Z,2.47
2023-05-01T22:09:34.749Z,3.70
2023-05-01T22:12:02.041Z,3.30
2023-05-01T22:17:40.139Z,3.05
2023-05-01T22:20:09.204Z,3.58
2023-05-01T22:22:38.106Z,2.85
2023-05-01T22:25:06.446Z,2.80
2023-05-01T22:27:34.879Z,3.38
2023-05-01T22:30:03.284Z,3.53
2023-05-01T22:32:31.819Z,3.95
2023-05-01T22:34:59.088Z,3.47
2023-05-01T22:37:26.446Z,2.65
2023-05-01T22:39:53.933Z,3.30
2023-05-01T22:45:31.377Z,3.30
2023-05-01T22:47:58.739Z,3.17
2023-05-01T22:52:53.062Z,3.17
2023-05-01T22:58:29.979Z,2.50
2023-05-01T23:00:57.319Z,2.75
2023-05-01T23:03:24.454Z,2.40
2023-05-01T23:05:51.652Z,2.42
2023-05-01T23:08:57.385Z,2.83
2023-05-01T23:14:35.436Z,3.13
2023-05-01T23:28:23.323Z,3.08
2023-05-01T23:31:02.001Z,2.78
2023-05-01T23:36:38.950Z,3.15
2023-05-01T23:39:06.106Z,4.00
2023-05-01T23:47:13.185Z,3.63
2023-05-01T23:49:40.454Z,5.35
2023-05-01T23:52:07.860Z,2.85
2023-05-01T23:54:34.886Z,3.05
